Mount Eden, Kentucky
Current Conditions -  °F | °C
As of 3:53 PM on Tuesday 27 Jan 2015 (Local Time) from KFFT Reporting Station
Clear Clear  
Wind Chill: 24°   Ceiling: Unl
Heat Index: 32°   Visibility: 10mi
Dew Point: 13°   Wind: 10mph
Humidity: 45%   Direction: 290°WNW
Pressure: 30.09"   Gusts: NA
Location:  38.06°N, 85.15°W
Report Text: KFFT 272053Z AUTO 29009KT 10SM CLR 00/M11 A3009 RMK AO2 SLP196 T00001106 53011
Loading
Personal Weather Stations






























Interactive Weather Map New forecast layout! Learn more

10-Day Weather Forecast

Advertisements
Track Severe Weather on mobile